Terminal Aerodrome Forecast
Issued by NWS

Home | Current Version | Previous Version | Text Only | Print | Product List | Glossary On
Versions: 1 2 3 4 5 6 7 8 9 10 11 12 13 14 15 16 17 18 19 20 21 22 23 24 25 26
000
FTUS46 KEKA 222325
TAFCEC
TAF
KCEC 222325Z 2300/2324 28004KT P6SM VCSH BKN060
      TEMPO 2300/2303 -SHRA BKN035
     FM230300 33005KT 6SM BR SCT050
     FM230800 06003KT 4SM BR SCT250=

USA.gov is the U.S. government's official web portal to all federal, state and local government web resources and services.